Home   Weather   Russia   Kaliningrad   Past weeks
Flag for Russia

Past Weather in Kaliningrad, Russia — Yesterday and Last 2 Weeks

Currently: 36 °F. Partly sunny. (Weather station: Kaliningrad/Khrabrovo Airport, Russia). See more current weather

Past Weather in Kaliningrad — Graph

°F

Kaliningrad Temperature Yesterday

Maximum temperature yesterday: 39 °F (at 4:30 pm)
Minimum temperature yesterday: 28 °F (at 11:00 pm)
Average temperature yesterday: 35 °F

High & Low Weather Summary for the Past Weeks

 TemperatureHumidityPressure
High61 °F (Feb 25, 2:00 pm)100% (Feb 19, 11:00 pm)30.48 "Hg (Feb 19, 11:00 pm)
Low1 °F (Feb 18, 6:00 am)55% (Feb 25, 4:30 pm)29.83 "Hg (Mar 4, 7:00 am)
Average36 °F86%30.24 "Hg
* Reported Feb 17 8:00 am — Mar 4 8:30 am, Kaliningrad. Weather by CustomWeather, © 2021

Note: Actual official high and low records may vary slightly from our data, if they occured in-between our weather recording intervals... More about our weather records

Kaliningrad Weather History for the Previous 24 Hours

Scroll right to see more
 ConditionsComfort  
Time TempWeatherWind HumidityBarometerVisibility
8:30 am
Thu, Mar 4
36 °FPartly sunny.8 mph93%29.83 "HgN/A
8:00 am36 °FPassing clouds.8 mph93%29.83 "HgN/A
7:30 am36 °FPassing clouds.8 mph93%29.83 "HgN/A
7:00 am36 °FPassing clouds.8 mph93%29.83 "HgN/A
6:30 am36 °FPassing clouds.13 mph93%29.86 "HgN/A
6:00 am36 °FPassing clouds.10 mph93%29.86 "Hg6 mi
5:30 am36 °FPassing clouds.13 mph93%29.86 "Hg4 mi
5:00 am36 °FPassing clouds.13 mph93%29.86 "Hg4 mi
4:30 am36 °FFog.13 mph93%29.86 "Hg2 mi
4:00 am36 °FFog.8 mph93%29.86 "Hg3 mi
3:30 am32 °FIce fog.8 mph93%29.86 "Hg2 mi
2:30 am28 °FIce fog.10 mph93%29.89 "Hg2 mi
1:30 am30 °FIce fog.8 mph100%29.92 "Hg3 mi
1:00 am28 °FIce fog.8 mph100%29.92 "Hg3 mi
12:30 am32 °FIce fog.8 mph93%29.95 "Hg3 mi
12:00 am32 °FIce fog.10 mph93%29.95 "Hg3 mi
11:30 pm
Wed, Mar 3
34 °FFog.8 mph93%29.98 "Hg3 mi
11:00 pm28 °FIce fog.8 mph100%29.98 "Hg3 mi
10:30 pm30 °FIce fog.8 mph93%30.01 "Hg3 mi
10:00 pm30 °FIce fog.8 mph93%30.04 "Hg3 mi
9:30 pm30 °FIce fog.6 mph93%30.04 "Hg3 mi
8:30 pm30 °FClear.3 mph93%30.07 "Hg4 mi
8:00 pm30 °FClear.3 mph93%30.07 "Hg4 mi
7:30 pm30 °FClear.1 mph93%30.09 "Hg5 mi
7:00 pm32 °FClear.No wind93%30.09 "Hg6 mi
6:30 pm37 °FSunny.3 mph75%30.12 "Hg10 mi
6:00 pm37 °FSunny.6 mph81%30.12 "Hg10 mi
5:30 pm39 °FSunny.3 mph75%30.15 "Hg10 mi
5:00 pm39 °FPassing clouds.8 mph81%30.15 "HgN/A
4:30 pm39 °FScattered clouds.10 mph75%30.18 "Hg6 mi
4:00 pm37 °FPartly sunny.10 mph81%30.21 "Hg6 mi
3:30 pm37 °FOvercast.10 mph81%30.21 "Hg6 mi
3:00 pm37 °FLow clouds.10 mph81%30.24 "HgN/A
2:30 pm37 °FLow clouds.13 mph81%30.24 "HgN/A
2:00 pm37 °FLow clouds.8 mph87%30.27 "HgN/A
1:30 pm36 °FLow clouds.8 mph87%30.27 "HgN/A
1:00 pm36 °FLow clouds.8 mph87%30.30 "HgN/A
12:30 pm34 °FLow clouds.8 mph93%30.33 "HgN/A
12:00 pm34 °FLow clouds.6 mph100%30.33 "HgN/A
11:30 am34 °FLow clouds.8 mph93%30.33 "Hg6 mi
11:00 am34 °FLow clouds.8 mph100%30.36 "Hg4 mi
10:30 am34 °FFog.6 mph100%30.36 "Hg2 mi
10:00 am34 °FSnow. Cloudy.6 mph93%30.36 "Hg1 mi
9:30 am34 °FChilly.6 mph93%30.39 "Hg1 mi
9:00 am34 °FSnow. Cloudy.3 mph100%30.39 "Hg0 mi
Weather by CustomWeather, © 2021

See weather overview